Time;durP1;ratioP1;P1;durP2;ratioP2;P2;SDS_P1;SDS_P2;PMS_P1;PMS_P2;Temp;Humidity;BMP_temperature;BMP_pressure;BME280_temperature;BME280_humidity;BME280_pressure;Samples;Min_cycle;Max_cycle;Signal;HPM_P1;HPM_P2
2021/04/02 00:01:18;;;;;;;34.00;24.20;;;12.80;83.30;;;;;;5098297;28;20180;-44
2021/04/02 00:03:44;;;;;;;41.70;27.00;;;12.80;83.80;;;;;;5080737;28;20184;-44
2021/04/02 00:06:11;;;;;;;40.80;27.47;;;12.80;84.10;;;;;;5080593;28;20805;-43
2021/04/02 00:08:37;;;;;;;38.40;27.97;;;12.70;84.50;;;;;;5098473;28;20237;-44
2021/04/02 00:11:06;;;;;;;42.53;31.03;;;12.70;85.20;;;;;;5097586;28;20553;-44
2021/04/02 00:13:38;;;;;;;46.70;32.70;;;12.70;85.60;;;;;;5092257;28;20919;-43
2021/04/02 00:16:05;;;;;;;47.47;31.17;;;12.60;85.70;;;;;;5097765;28;20840;-43
2021/04/02 00:18:31;;;;;;;45.07;30.77;;;12.60;86.10;;;;;;5097697;28;20462;-44
2021/04/02 00:20:58;;;;;;;50.97;31.73;;;12.60;86.40;;;;;;5098365;28;20445;-44
2021/04/02 00:23:25;;;;;;;46.83;33.27;;;12.50;86.50;;;;;;5080889;28;20445;-43
2021/04/02 00:25:51;;;;;;;45.20;30.80;;;12.50;86.60;;;;;;5097855;28;20501;-43
2021/04/02 00:28:18;;;;;;;47.83;34.90;;;12.50;86.90;;;;;;5081016;28;20488;-43
2021/04/02 00:30:46;;;;;;;50.03;34.60;;;12.50;87.20;;;;;;5080114;28;20437;-44
2021/04/02 00:33:14;;;;;;;45.73;32.10;;;12.40;87.70;;;;;;5098515;28;20425;-42
2021/04/02 00:35:41;;;;;;;41.97;31.57;;;12.40;87.70;;;;;;5098124;28;20431;-43
2021/04/02 00:38:07;;;;;;;44.80;33.37;;;12.30;87.90;;;;;;5080910;28;20430;-44
2021/04/02 00:40:37;;;;;;;46.53;32.57;;;12.30;87.90;;;;;;5097513;28;20724;-44
2021/04/02 00:43:03;;;;;;;45.00;32.50;;;12.30;88.00;;;;;;5097288;28;20433;-44
2021/04/02 00:45:29;;;;;;;50.67;33.30;;;12.30;88.10;;;;;;5097529;28;20492;-44
2021/04/02 00:47:55;;;;;;;48.00;34.30;;;12.30;88.20;;;;;;5097393;28;20422;-44
2021/04/02 00:50:37;;;;;;;44.20;32.47;;;12.20;88.60;;;;;;5097642;28;20418;-43
2021/04/02 00:53:03;;;;;;;44.00;32.17;;;12.20;88.70;;;;;;5097504;28;20466;-44
2021/04/02 00:55:29;;;;;;;44.07;32.17;;;12.20;88.80;;;;;;5097852;28;20410;-43
2021/04/02 00:57:55;;;;;;;45.00;31.50;;;12.20;89.00;;;;;;5079940;28;20422;-43
2021/04/02 01:00:21;;;;;;;48.90;35.50;;;12.10;88.90;;;;;;5097645;28;20696;-43
2021/04/02 01:02:47;;;;;;;42.27;32.93;;;12.10;89.40;;;;;;5099923;28;20421;-43
2021/04/02 01:05:16;;;;;;;43.23;32.03;;;12.10;89.40;;;;;;5100906;28;20183;-44
2021/04/02 01:08:02;;;;;;;46.60;32.40;;;12.10;89.60;;;;;;5101067;28;20561;-43
2021/04/02 01:10:29;;;;;;;47.83;33.70;;;12.00;89.80;;;;;;5100175;28;20513;-44
2021/04/02 01:13:05;;;;;;;43.53;32.80;;;11.90;90.00;;;;;;5100918;28;20824;-43
2021/04/02 01:15:34;;;;;;;46.83;35.87;;;11.90;90.10;;;;;;5080173;28;20476;-43
2021/04/02 01:18:24;;;;;;;49.57;34.10;;;11.80;90.10;;;;;;5080499;28;20659;-43
2021/04/02 01:20:51;;;;;;;45.43;34.67;;;11.80;90.30;;;;;;5072689;28;20717;-43
2021/04/02 01:23:20;;;;;;;43.63;33.13;;;11.70;90.40;;;;;;5079930;28;20506;-42
2021/04/02 01:25:49;;;;;;;45.90;33.70;;;11.70;90.60;;;;;;5075087;28;20808;-44
2021/04/02 01:28:40;;;;;;;44.43;34.00;;;11.60;90.60;;;;;;5068715;28;20428;-43
2021/04/02 01:31:07;;;;;;;46.90;34.10;;;11.60;90.90;;;;;;5042754;28;20408;-44
2021/04/02 01:33:33;;;;;;;50.10;36.50;;;11.50;91.00;;;;;;5060222;28;20426;-43
2021/04/02 01:35:59;;;;;;;48.63;36.17;;;11.50;91.10;;;;;;5060150;28;20424;-42
2021/04/02 01:38:43;;;;;;;45.53;33.47;;;11.40;91.20;;;;;;5042296;28;20284;-44
2021/04/02 01:41:11;;;;;;;42.40;32.37;;;11.40;91.30;;;;;;5042572;28;20498;-43
2021/04/02 01:43:43;;;;;;;44.07;33.03;;;11.30;91.50;;;;;;5060287;28;20426;-44
2021/04/02 01:46:15;;;;;;;38.33;31.73;;;11.30;91.60;;;;;;5059696;28;20563;-42
2021/04/02 01:48:44;;;;;;;43.27;33.40;;;11.30;91.70;;;;;;5042424;28;20424;-43
2021/04/02 01:51:13;;;;;;;42.40;32.50;;;11.20;91.60;;;;;;5060024;28;20961;-44
2021/04/02 01:53:46;;;;;;;50.37;33.97;;;11.20;91.70;;;;;;5059734;28;20432;-43
2021/04/02 01:56:13;;;;;;;40.90;32.10;;;11.20;91.80;;;;;;5060147;28;20432;-44
2021/04/02 01:58:41;;;;;;;39.80;32.90;;;11.10;91.80;;;;;;5059615;28;20428;-43
2021/04/02 02:01:08;;;;;;;40.70;31.43;;;11.00;92.00;;;;;;5060020;28;20416;-43
2021/04/02 02:03:35;;;;;;;45.27;33.67;;;11.00;92.20;;;;;;5059586;28;20425;-44
2021/04/02 02:06:03;;;;;;;42.20;32.17;;;10.90;92.30;;;;;;5059036;28;20480;-43
2021/04/02 02:08:30;;;;;;;42.27;33.13;;;10.90;92.40;;;;;;5059273;28;20734;-43
2021/04/02 02:11:16;;;;;;;42.20;34.20;;;10.90;92.40;;;;;;5042445;28;20409;-43
2021/04/02 02:13:47;;;;;;;40.97;31.23;;;10.90;92.60;;;;;;5064140;28;20463;-43
2021/04/02 02:16:14;;;;;;;41.20;32.20;;;10.80;92.60;;;;;;5061761;28;20934;-44
2021/04/02 02:18:40;;;;;;;44.37;33.33;;;10.80;92.80;;;;;;5061833;28;20435;-44
2021/04/02 02:21:13;;;;;;;42.90;32.30;;;10.70;92.80;;;;;;5078881;28;20455;-43
2021/04/02 02:23:43;;;;;;;42.37;30.30;;;10.70;92.90;;;;;;5061565;28;20488;-43
2021/04/02 02:26:10;;;;;;;50.03;32.10;;;10.60;93.00;;;;;;5078919;28;20496;-44
2021/04/02 02:28:35;;;;;;;41.43;32.60;;;10.60;93.10;;;;;;5062322;28;20416;-43
2021/04/02 02:31:01;;;;;;;40.03;29.80;;;10.60;93.10;;;;;;5079004;28;20427;-43
2021/04/02 02:33:28;;;;;;;46.13;29.67;;;10.50;93.10;;;;;;5079242;28;20180;-44
2021/04/02 02:35:54;;;;;;;39.00;29.23;;;10.50;93.20;;;;;;5079273;28;20427;-44
2021/04/02 02:38:21;;;;;;;33.87;27.60;;;10.50;93.30;;;;;;5079046;28;20576;-44
2021/04/02 02:40:47;;;;;;;39.23;27.43;;;10.40;93.20;;;;;;5079259;28;20422;-44
2021/04/02 02:43:14;;;;;;;32.27;28.10;;;10.40;93.30;;;;;;5078661;28;20447;-43
2021/04/02 02:45:41;;;;;;;38.50;26.90;;;10.40;93.30;;;;;;5078748;28;20462;-43
2021/04/02 02:48:07;;;;;;;35.80;26.63;;;10.30;93.40;;;;;;5079033;28;20471;-44
2021/04/02 02:50:35;;;;;;;32.80;26.33;;;10.20;93.50;;;;;;5078850;28;20427;-43
2021/04/02 02:53:02;;;;;;;40.17;28.73;;;10.20;93.60;;;;;;5061099;28;20435;-44
2021/04/02 02:55:30;;;;;;;41.80;28.33;;;10.20;93.70;;;;;;5061266;28;20757;-43
2021/04/02 02:57:56;;;;;;;36.43;27.37;;;10.20;93.90;;;;;;5061142;28;20423;-43
2021/04/02 03:00:25;;;;;;;37.47;27.53;;;10.20;93.90;;;;;;5060875;28;20514;-44
2021/04/02 03:02:54;;;;;;;36.30;28.27;;;10.10;93.80;;;;;;5078215;28;20455;-43
2021/04/02 03:05:22;;;;;;;44.30;28.13;;;10.10;93.90;;;;;;5060562;28;20427;-44
2021/04/02 03:07:53;;;;;;;38.13;26.43;;;10.00;94.00;;;;;;5078876;28;20476;-43
2021/04/02 03:10:20;;;;;;;35.10;25.70;;;9.90;94.70;;;;;;5060838;28;20441;-44
2021/04/02 03:12:46;;;;;;;37.80;27.03;;;9.90;94.80;;;;;;5078309;28;20415;-43
2021/04/02 03:15:14;;;;;;;32.97;25.97;;;9.80;94.80;;;;;;5060521;28;20570;-42
2021/04/02 03:17:41;;;;;;;36.60;23.80;;;9.80;94.80;;;;;;5078151;28;20424;-43
2021/04/02 03:20:10;;;;;;;34.17;27.00;;;9.80;94.90;;;;;;5060319;28;20431;-43
2021/04/02 03:22:36;;;;;;;34.33;24.60;;;9.80;94.90;;;;;;5060740;28;20462;-44
2021/04/02 03:25:14;;;;;;;37.47;24.93;;;9.70;94.90;;;;;;5078154;28;20439;-43
2021/04/02 03:27:40;;;;;;;30.63;24.30;;;9.70;95.00;;;;;;5059912;28;20435;-44
2021/04/02 03:30:11;;;;;;;31.53;23.07;;;9.70;95.00;;;;;;5071662;28;20445;-43
2021/04/02 03:32:41;;;;;;;30.13;22.67;;;9.70;94.90;;;;;;5097772;28;20435;-43
2021/04/02 03:35:08;;;;;;;33.00;23.47;;;9.70;94.80;;;;;;5098324;28;20440;-43
2021/04/02 03:37:35;;;;;;;28.97;22.60;;;9.70;94.70;;;;;;5098454;28;20418;-44
2021/04/02 03:40:04;;;;;;;29.23;23.87;;;9.70;94.60;;;;;;5080541;28;21031;-44
2021/04/02 03:42:31;;;;;;;30.43;22.80;;;9.60;94.60;;;;;;5098076;28;20516;-41
2021/04/02 03:44:58;;;;;;;28.13;19.43;;;9.60;94.70;;;;;;5097881;28;20433;-44
2021/04/02 03:47:26;;;;;;;34.23;22.63;;;9.50;94.80;;;;;;5080467;28;20407;-44
2021/04/02 03:49:53;;;;;;;28.37;20.07;;;9.50;94.90;;;;;;5063286;28;20439;-44
2021/04/02 03:52:31;;;;;;;29.60;17.97;;;9.40;94.90;;;;;;5097939;28;20421;-44
2021/04/02 03:54:57;;;;;;;21.63;16.57;;;9.40;94.60;;;;;;5080281;28;20409;-44
2021/04/02 03:57:25;;;;;;;18.73;14.17;;;9.30;94.10;;;;;;5098176;28;20541;-43
2021/04/02 03:59:52;;;;;;;17.30;13.50;;;9.20;93.40;;;;;;5097769;28;20463;-43
2021/04/02 04:02:19;;;;;;;16.67;12.10;;;9.10;92.90;;;;;;5080213;28;20812;-44
2021/04/02 04:04:45;;;;;;;12.03;10.60;;;9.10;92.30;;;;;;5097461;28;20461;-42
2021/04/02 04:07:12;;;;;;;14.10;9.73;;;9.00;91.70;;;;;;5097516;28;20912;-43
2021/04/02 04:09:39;;;;;;;11.40;8.40;;;8.80;91.30;;;;;;5079756;28;20465;-43
2021/04/02 04:12:08;;;;;;;10.97;7.87;;;8.80;91.10;;;;;;5079837;28;20407;-41
2021/04/02 04:14:34;;;;;;;10.47;8.23;;;8.70;90.60;;;;;;5097623;28;20470;-41
2021/04/02 04:17:00;;;;;;;10.87;7.80;;;8.60;90.40;;;;;;5079953;28;20748;-42
2021/04/02 04:19:28;;;;;;;11.03;7.30;;;8.60;89.90;;;;;;5079788;28;20418;-43
2021/04/02 04:21:57;;;;;;;7.80;6.60;;;8.50;89.40;;;;;;5080555;28;20685;-44
2021/04/02 04:24:25;;;;;;;7.97;5.67;;;8.30;89.00;;;;;;5097652;28;20425;-44
2021/04/02 04:26:53;;;;;;;6.60;5.57;;;8.30;88.80;;;;;;5080068;28;20418;-44
2021/04/02 04:29:22;;;;;;;10.43;5.93;;;8.30;88.60;;;;;;5063406;28;20806;-43
2021/04/02 04:31:48;;;;;;;7.70;5.20;;;8.20;88.50;;;;;;5080408;28;20538;-44
2021/04/02 04:34:15;;;;;;;7.40;5.77;;;8.20;88.40;;;;;;5079987;28;20533;-44
2021/04/02 04:36:43;;;;;;;7.93;5.10;;;8.10;87.90;;;;;;5080059;28;20557;-43
2021/04/02 04:39:09;;;;;;;6.80;4.77;;;8.10;87.20;;;;;;5066075;28;20422;-42
2021/04/02 04:41:35;;;;;;;9.77;5.07;;;8.10;86.40;;;;;;5101341;28;20421;-43
2021/04/02 04:44:02;;;;;;;5.93;4.47;;;8.00;86.40;;;;;;5082963;28;20517;-43
2021/04/02 04:46:27;;;;;;;8.07;4.67;;;8.00;85.80;;;;;;5084153;28;20589;-44
2021/04/02 04:48:53;;;;;;;9.30;4.60;;;8.00;85.30;;;;;;5083738;28;20418;-43
2021/04/02 04:51:20;;;;;;;5.53;3.50;;;7.90;85.20;;;;;;5101246;28;20177;-44
2021/04/02 04:53:48;;;;;;;6.43;4.70;;;8.00;84.70;;;;;;5083519;28;20422;-44
2021/04/02 04:56:14;;;;;;;7.13;4.10;;;8.00;84.00;;;;;;5084130;28;20785;-44
2021/04/02 04:58:41;;;;;;;5.20;3.90;;;8.00;83.60;;;;;;5083322;28;20417;-44
2021/04/02 05:01:11;;;;;;;6.07;4.33;;;7.90;83.50;;;;;;5083971;28;20932;-41
2021/04/02 05:03:37;;;;;;;6.57;4.23;;;7.90;84.00;;;;;;5083900;28;20411;-41
2021/04/02 05:06:04;;;;;;;6.83;4.03;;;7.80;83.80;;;;;;5101247;28;20419;-43
2021/04/02 05:08:41;;;;;;;5.70;4.30;;;7.90;83.70;;;;;;5083431;28;20422;-43
2021/04/02 05:11:09;;;;;;;5.43;4.10;;;7.80;83.80;;;;;;5101568;28;20418;-44
2021/04/02 05:13:35;;;;;;;4.50;2.67;;;7.80;83.50;;;;;;5083138;28;20553;-44
2021/04/02 05:16:02;;;;;;;5.70;3.10;;;7.80;83.60;;;;;;5082720;28;20466;-44
2021/04/02 05:18:29;;;;;;;5.60;3.67;;;7.80;82.40;;;;;;5100089;28;20426;-44
2021/04/02 05:20:55;;;;;;;3.73;3.30;;;7.70;82.20;;;;;;5083399;28;20447;-44
2021/04/02 05:23:21;;;;;;;3.37;2.80;;;7.70;82.40;;;;;;5100582;28;20410;-43
2021/04/02 05:25:47;;;;;;;4.87;3.67;;;7.60;82.50;;;;;;5100786;28;20783;-44
2021/04/02 05:28:13;;;;;;;3.70;3.13;;;7.70;82.10;;;;;;5101041;28;20434;-44
2021/04/02 05:30:38;;;;;;;8.93;3.50;;;7.70;82.30;;;;;;5101184;28;20591;-43
2021/04/02 05:33:05;;;;;;;7.23;3.20;;;7.70;81.90;;;;;;5100934;28;20414;-44
2021/04/02 05:35:31;;;;;;;5.07;3.13;;;7.70;81.80;;;;;;5100690;28;20211;-44
2021/04/02 05:37:58;;;;;;;5.87;3.40;;;7.80;81.80;;;;;;5101096;28;20415;-44
2021/04/02 05:40:24;;;;;;;5.30;3.00;;;7.70;81.30;;;;;;5100933;28;20425;-43
2021/04/02 05:43:20;;;;;;;5.70;3.40;;;7.70;81.80;;;;;;5100698;28;20713;-43
2021/04/02 05:45:46;;;;;;;5.03;3.80;;;7.70;81.80;;;;;;5100278;28;20517;-42
2021/04/02 05:48:15;;;;;;;4.47;4.07;;;7.70;81.70;;;;;;5098273;28;20475;-42
2021/04/02 05:50:41;;;;;;;5.40;3.50;;;7.80;82.30;;;;;;5099347;28;20457;-42
2021/04/02 05:53:10;;;;;;;5.73;4.10;;;7.80;82.20;;;;;;5099397;28;20685;-43
2021/04/02 05:55:38;;;;;;;5.63;3.60;;;7.80;82.10;;;;;;5099391;28;20466;-42
2021/04/02 05:58:09;;;;;;;6.50;3.40;;;7.80;82.50;;;;;;5099407;28;20466;-43
2021/04/02 06:00:36;;;;;;;5.53;3.53;;;7.90;82.50;;;;;;5098648;28;20465;-43
2021/04/02 06:03:04;;;;;;;6.50;3.90;;;7.90;82.20;;;;;;5085431;28;20420;-42
2021/04/02 06:05:29;;;;;;;4.90;4.00;;;8.00;81.80;;;;;;5098355;28;20421;-42
2021/04/02 06:07:56;;;;;;;6.70;3.90;;;8.20;82.00;;;;;;5079627;28;20414;-40
2021/04/02 06:10:22;;;;;;;5.43;3.97;;;8.40;82.00;;;;;;5081728;28;20325;-41
2021/04/02 06:12:48;;;;;;;6.77;4.20;;;8.60;81.80;;;;;;5099892;28;20525;-40
2021/04/02 06:15:15;;;;;;;5.57;4.37;;;8.80;81.10;;;;;;5099601;28;20604;-42
2021/04/02 06:18:01;;;;;;;7.13;4.63;;;8.90;80.60;;;;;;5099608;28;20476;-41
2021/04/02 06:20:29;;;;;;;6.80;4.30;;;9.10;80.10;;;;;;5098839;28;20468;-41
2021/04/02 06:23:05;;;;;;;6.83;4.53;;;9.30;80.00;;;;;;5079491;28;20514;-40
2021/04/02 06:25:30;;;;;;;5.97;4.37;;;9.50;79.00;;;;;;5082078;28;20730;-41
2021/04/02 06:27:56;;;;;;;5.97;4.37;;;9.50;78.60;;;;;;5094142;28;20418;-41
2021/04/02 06:30:29;;;;;;;5.57;4.97;;;9.50;78.50;;;;;;5097211;28;20172;-42
2021/04/02 06:32:55;;;;;;;7.23;4.40;;;9.70;78.60;;;;;;5099083;28;20407;-40
2021/04/02 06:35:25;;;;;;;6.63;4.87;;;9.80;78.00;;;;;;5099278;28;20431;-43
2021/04/02 06:37:55;;;;;;;9.00;5.07;;;9.90;78.90;;;;;;5099562;28;20422;-40
2021/04/02 06:40:22;;;;;;;8.67;4.60;;;10.20;79.80;;;;;;5099100;28;20430;-41
2021/04/02 06:42:49;;;;;;;7.60;4.87;;;10.50;78.40;;;;;;5099207;28;20851;-41
2021/04/02 06:45:15;;;;;;;6.63;4.93;;;10.70;77.20;;;;;;5098881;28;20495;-42
2021/04/02 06:47:43;;;;;;;9.20;5.23;;;11.00;77.10;;;;;;5097673;28;20462;-41
2021/04/02 06:50:24;;;;;;;6.83;4.90;;;11.20;75.30;;;;;;5090840;28;20767;-39
2021/04/02 06:52:55;;;;;;;7.47;4.87;;;11.50;74.60;;;;;;5097992;28;20775;-41
2021/04/02 06:55:23;;;;;;;5.43;4.93;;;11.70;72.90;;;;;;5078482;28;20433;-43
2021/04/02 06:57:51;;;;;;;6.53;4.40;;;11.80;73.70;;;;;;5091576;28;20774;-42
2021/04/02 07:00:24;;;;;;;6.80;4.10;;;11.90;72.70;;;;;;5098202;28;20430;-42
2021/04/02 07:02:52;;;;;;;5.17;3.90;;;11.90;71.40;;;;;;5097360;28;20446;-43
2021/04/02 07:05:23;;;;;;;6.67;4.63;;;12.10;70.90;;;;;;5092849;28;20506;-42
2021/04/02 07:08:00;;;;;;;6.77;4.83;;;12.20;68.70;;;;;;5097118;28;20422;-42
2021/04/02 07:10:27;;;;;;;7.40;4.00;;;12.40;69.10;;;;;;5095162;28;20524;-41
2021/04/02 07:12:53;;;;;;;8.13;4.80;;;12.50;68.80;;;;;;5094803;28;20422;-43
2021/04/02 07:15:19;;;;;;;6.27;4.97;;;12.70;67.30;;;;;;5096011;28;20744;-41
2021/04/02 07:17:46;;;;;;;4.60;4.20;;;12.90;67.20;;;;;;5078299;28;20454;-43
2021/04/02 07:20:13;;;;;;;8.20;5.17;;;13.00;66.20;;;;;;5097155;28;20905;-42
2021/04/02 07:22:42;;;;;;;7.40;4.73;;;13.20;64.20;;;;;;5098021;28;20888;-42
2021/04/02 07:25:10;;;;;;;4.80;4.23;;;13.40;62.50;;;;;;5095697;28;20495;-41
2021/04/02 07:27:36;;;;;;;5.83;4.20;;;13.60;62.80;;;;;;5090247;28;20457;-43
2021/04/02 07:30:04;;;;;;;8.13;4.43;;;13.80;61.50;;;;;;5095731;28;20468;-44
2021/04/02 07:32:31;;;;;;;5.57;4.70;;;13.90;61.50;;;;;;5095730;28;20450;-42
2021/04/02 07:34:56;;;;;;;5.73;4.97;;;14.10;59.60;;;;;;5071703;28;20495;-43
2021/04/02 07:37:22;;;;;;;6.80;4.93;;;14.00;59.80;;;;;;5077784;28;20783;-42
2021/04/02 07:39:54;;;;;;;6.67;5.80;;;14.30;59.60;;;;;;5078674;28;20200;-42
2021/04/02 07:42:23;;;;;;;5.87;5.20;;;14.70;59.30;;;;;;5096874;28;20176;-42
2021/04/02 07:44:54;;;;;;;6.60;5.23;;;15.30;58.10;;;;;;5095794;28;20425;-41
2021/04/02 07:47:21;;;;;;;6.27;5.67;;;15.70;56.50;;;;;;5096193;28;20426;-42
2021/04/02 07:49:51;;;;;;;5.80;4.90;;;16.20;55.00;;;;;;5091390;28;20507;-41
2021/04/02 07:52:17;;;;;;;7.57;5.27;;;16.90;54.60;;;;;;5096118;28;20434;-42
2021/04/02 07:54:44;;;;;;;6.63;5.67;;;17.40;52.30;;;;;;5090372;28;20454;-43
2021/04/02 07:57:10;;;;;;;7.13;5.30;;;18.10;50.80;;;;;;5095935;28;20564;-43
2021/04/02 07:59:42;;;;;;;7.00;5.90;;;18.60;49.10;;;;;;5096832;28;20785;-42
2021/04/02 08:02:20;;;;;;;5.93;5.40;;;19.20;48.00;;;;;;5096634;28;20513;-42
2021/04/02 08:04:54;;;;;;;8.27;5.90;;;19.50;46.60;;;;;;5077400;28;20453;-42
2021/04/02 08:07:40;;;;;;;9.30;6.50;;;19.90;45.60;;;;;;5086284;28;20506;-42
2021/04/02 08:10:15;;;;;;;7.17;6.47;;;20.10;44.00;;;;;;5095304;28;20441;-44
2021/04/02 08:12:41;;;;;;;8.00;6.80;;;20.60;43.20;;;;;;5099722;28;20441;-42
2021/04/02 08:15:12;;;;;;;7.87;6.20;;;20.10;42.70;;;;;;5100880;28;20485;-41
2021/04/02 08:17:38;;;;;;;7.40;6.30;;;20.10;42.70;;;;;;5100821;28;20549;-40
2021/04/02 08:20:13;;;;;;;7.80;7.10;;;20.40;42.90;;;;;;5100723;28;20488;-43
2021/04/02 08:22:39;;;;;;;7.97;6.37;;;21.30;41.70;;;;;;5100225;28;20445;-42
2021/04/02 08:25:09;;;;;;;7.93;7.23;;;21.80;41.10;;;;;;5100715;28;20433;-43
2021/04/02 08:27:35;;;;;;;8.30;6.50;;;22.10;40.40;;;;;;5101808;28;20426;-42
2021/04/02 08:30:05;;;;;;;6.70;5.80;;;22.30;39.80;;;;;;5101614;28;20438;-40
2021/04/02 08:32:40;;;;;;;8.47;7.40;;;22.90;39.80;;;;;;5100962;28;20566;-43
2021/04/02 08:35:07;;;;;;;7.93;6.30;;;23.20;38.60;;;;;;5101216;28;20938;-43
2021/04/02 08:37:34;;;;;;;8.07;7.13;;;21.60;37.60;;;;;;5101002;28;20489;-40
2021/04/02 08:40:05;;;;;;;7.47;6.73;;;22.20;38.70;;;;;;5101260;28;20499;-42
2021/04/02 08:42:31;;;;;;;8.47;6.83;;;22.10;38.50;;;;;;5100804;28;20501;-41
2021/04/02 08:45:06;;;;;;;9.00;7.30;;;22.40;38.20;;;;;;5100529;28;20433;-41
2021/04/02 08:47:31;;;;;;;6.97;5.87;;;22.50;38.50;;;;;;5100709;28;20428;-43
2021/04/02 08:49:57;;;;;;;8.10;6.93;;;22.90;37.90;;;;;;5100566;28;20525;-42
2021/04/02 08:52:28;;;;;;;7.37;6.67;;;23.10;37.60;;;;;;5100775;28;20228;-43
2021/04/02 08:55:13;;;;;;;8.43;7.37;;;23.30;36.80;;;;;;5100649;28;20180;-42
2021/04/02 08:57:39;;;;;;;7.37;6.67;;;22.50;36.60;;;;;;5098929;28;20751;-42
2021/04/02 09:00:08;;;;;;;9.07;7.07;;;22.50;37.00;;;;;;5100545;28;20529;-43
2021/04/02 09:02:35;;;;;;;7.43;6.83;;;22.90;38.00;;;;;;5100328;28;20180;-43
2021/04/02 09:05:04;;;;;;;9.30;8.50;;;23.20;37.80;;;;;;5100234;28;20434;-42
2021/04/02 09:07:30;;;;;;;8.57;7.77;;;23.40;36.80;;;;;;5082825;28;20437;-43
2021/04/02 09:09:55;;;;;;;8.10;7.30;;;23.50;36.50;;;;;;5082392;28;20430;-43
2021/04/02 09:12:21;;;;;;;9.03;8.13;;;23.40;36.70;;;;;;5083071;28;20204;-43
2021/04/02 09:14:49;;;;;;;8.50;7.67;;;22.70;36.50;;;;;;5099070;28;20223;-41
2021/04/02 09:17:25;;;;;;;8.20;7.40;;;22.30;36.80;;;;;;5099663;28;20474;-43
2021/04/02 09:19:52;;;;;;;8.87;8.17;;;22.10;37.10;;;;;;5099799;28;20491;-42
2021/04/02 09:22:19;;;;;;;9.60;8.00;;;22.00;37.00;;;;;;5099100;28;20419;-43
2021/04/02 09:24:45;;;;;;;8.50;7.67;;;21.90;37.50;;;;;;5098049;28;20502;-42
2021/04/02 09:27:13;;;;;;;8.90;8.10;;;21.60;38.30;;;;;;5098568;28;20418;-42
2021/04/02 09:29:44;;;;;;;9.00;8.20;;;21.40;37.40;;;;;;5097962;28;20434;-41
2021/04/02 09:32:09;;;;;;;11.30;8.40;;;21.40;37.10;;;;;;5098096;28;20422;-42
2021/04/02 09:34:35;;;;;;;9.87;8.87;;;21.60;37.40;;;;;;5097913;28;21062;-42
2021/04/02 09:37:02;;;;;;;9.47;8.67;;;21.80;37.50;;;;;;5100636;28;20208;-43
2021/04/02 09:39:29;;;;;;;9.10;8.27;;;22.10;37.20;;;;;;5082513;28;20519;-41
2021/04/02 09:41:57;;;;;;;9.30;8.40;;;22.10;36.80;;;;;;5100170;28;20426;-42
2021/04/02 09:44:39;;;;;;;11.10;8.43;;;22.40;36.90;;;;;;5099235;28;20435;-43
2021/04/02 09:47:12;;;;;;;10.13;9.10;;;22.10;37.00;;;;;;5100076;28;20406;-42
2021/04/02 09:49:38;;;;;;;10.60;9.53;;;22.50;36.60;;;;;;5099294;28;20929;-42
2021/04/02 09:52:05;;;;;;;10.73;9.83;;;22.20;36.40;;;;;;5098723;28;20487;-43
2021/04/02 09:54:32;;;;;;;10.17;9.27;;;22.30;36.60;;;;;;5098936;28;20737;-42
2021/04/02 09:57:03;;;;;;;10.60;9.60;;;22.60;36.70;;;;;;5096597;28;20470;-42
2021/04/02 09:59:29;;;;;;;11.40;10.37;;;22.60;36.30;;;;;;5097476;28;20414;-43
2021/04/02 10:01:55;;;;;;;10.93;9.83;;;23.20;35.70;;;;;;5097069;28;20518;-41
2021/04/02 10:04:20;;;;;;;10.37;9.47;;;24.00;35.50;;;;;;5097494;28;20517;-42
2021/04/02 10:06:47;;;;;;;11.00;10.00;;;23.80;34.90;;;;;;5092621;28;20523;-41
2021/04/02 10:09:13;;;;;;;10.93;10.00;;;23.30;35.30;;;;;;5096934;28;20423;-42
2021/04/02 10:11:49;;;;;;;11.63;10.63;;;22.60;36.20;;;;;;5096076;28;20809;-40
2021/04/02 10:14:15;;;;;;;10.45;9.50;;;21.70;36.70;;;;;;5095299;28;20420;-42
2021/04/02 10:16:44;;;;;;;10.00;9.07;;;22.70;38.20;;;;;;5097444;28;20226;-42
2021/04/02 10:19:10;;;;;;;10.80;9.70;;;24.10;36.40;;;;;;5098968;28;20493;-41
2021/04/02 10:21:36;;;;;;;10.93;10.03;;;24.60;35.10;;;;;;5097941;28;20526;-42
2021/04/02 10:24:01;;;;;;;11.00;10.10;;;24.60;34.10;;;;;;5074762;28;20239;-42
2021/04/02 10:26:28;;;;;;;11.97;10.80;;;25.30;34.60;;;;;;5096601;28;20453;-41
2021/04/02 10:28:54;;;;;;;10.33;9.33;;;26.20;34.30;;;;;;5095934;28;20238;-42
2021/04/02 10:31:21;;;;;;;11.23;10.10;;;27.10;33.10;;;;;;5096065;28;20426;-43
2021/04/02 10:33:47;;;;;;;9.30;8.50;;;27.40;32.10;;;;;;5096785;28;20434;-43
2021/04/02 10:36:13;;;;;;;9.87;8.93;;;27.40;31.50;;;;;;5096313;28;20481;-43
2021/04/02 10:38:39;;;;;;;8.93;8.13;;;27.40;31.10;;;;;;5097080;28;20418;-43
2021/04/02 10:41:06;;;;;;;9.20;8.40;;;28.30;31.00;;;;;;5096541;28;20430;-43
2021/04/02 10:43:32;;;;;;;9.63;8.93;;;29.30;29.90;;;;;;5097150;28;20894;-43
2021/04/02 10:45:58;;;;;;;9.60;8.70;;;29.90;29.20;;;;;;5098219;28;20462;-44
2021/04/02 10:48:24;;;;;;;10.70;9.83;;;29.90;29.00;;;;;;5098794;28;20172;-43
2021/04/02 10:50:52;;;;;;;9.30;8.60;;;29.70;28.90;;;;;;5097968;28;20434;-42
2021/04/02 10:53:17;;;;;;;10.30;9.40;;;29.20;28.70;;;;;;5098158;28;20200;-42
2021/04/02 10:55:44;;;;;;;9.30;8.60;;;28.00;29.00;;;;;;5096977;28;20512;-43
2021/04/02 10:58:10;;;;;;;9.80;9.07;;;28.20;29.40;;;;;;5097252;28;20245;-43
2021/04/02 11:00:38;;;;;;;9.70;8.80;;;28.90;29.50;;;;;;5097529;28;20707;-43
2021/04/02 11:03:04;;;;;;;10.73;9.60;;;29.20;28.50;;;;;;5097147;28;20434;-41
2021/04/02 11:05:30;;;;;;;10.97;9.83;;;29.60;28.50;;;;;;5093017;28;20957;-42
2021/04/02 11:07:56;;;;;;;10.70;9.80;;;30.20;28.30;;;;;;5092152;28;20414;-43
2021/04/02 11:10:22;;;;;;;10.40;9.40;;;30.20;28.00;;;;;;5097165;28;20873;-43
2021/04/02 11:12:48;;;;;;;10.07;9.27;;;30.00;27.60;;;;;;5097703;28;20484;-42
2021/04/02 11:15:15;;;;;;;9.97;9.17;;;30.00;27.80;;;;;;5097786;28;20515;-43
2021/04/02 11:17:41;;;;;;;10.07;9.37;;;30.00;27.70;;;;;;5097018;28;20219;-42
2021/04/02 11:20:10;;;;;;;10.93;9.83;;;30.20;28.20;;;;;;5097237;28;20809;-41
2021/04/02 11:22:37;;;;;;;10.50;9.40;;;30.50;27.80;;;;;;5097729;28;20670;-41
2021/04/02 11:25:06;;;;;;;8.77;7.97;;;30.60;27.70;;;;;;5097019;28;20453;-41
2021/04/02 11:27:33;;;;;;;9.07;8.30;;;30.10;27.70;;;;;;5097641;28;20517;-43
2021/04/02 11:29:58;;;;;;;8.60;8.00;;;30.00;27.70;;;;;;5097112;28;20430;-43
2021/04/02 11:32:24;;;;;;;8.97;8.17;;;30.20;27.50;;;;;;5098253;28;20434;-43
2021/04/02 11:34:50;;;;;;;8.20;7.53;;;28.70;27.20;;;;;;5097047;28;20693;-43
2021/04/02 11:37:16;;;;;;;7.43;6.83;;;29.30;28.00;;;;;;5096786;28;20223;-43
2021/04/02 11:39:42;;;;;;;7.90;7.30;;;30.30;27.30;;;;;;5096749;28;20426;-42
2021/04/02 11:42:08;;;;;;;8.47;7.87;;;31.10;26.50;;;;;;5096924;28;20436;-43
2021/04/02 11:44:35;;;;;;;8.90;8.20;;;31.50;26.50;;;;;;5095139;28;20397;-43
2021/04/02 11:47:01;;;;;;;8.03;7.43;;;31.60;25.70;;;;;;5093597;28;20662;-43
2021/04/02 11:49:26;;;;;;;7.80;7.30;;;31.30;25.90;;;;;;5060781;28;20426;-43
2021/04/02 11:51:53;;;;;;;9.30;8.57;;;31.60;26.00;;;;;;5097468;28;20245;-44
2021/04/02 11:54:19;;;;;;;7.93;7.30;;;31.30;25.40;;;;;;5096868;28;20190;-41
2021/04/02 11:56:46;;;;;;;8.80;8.10;;;31.10;25.80;;;;;;5097913;28;20473;-42
2021/04/02 11:59:12;;;;;;;8.53;7.83;;;31.10;25.40;;;;;;5097264;28;20759;-43
2021/04/02 12:01:38;;;;;;;7.90;7.40;;;30.70;25.40;;;;;;5096956;28;20515;-42
2021/04/02 12:04:05;;;;;;;7.93;7.20;;;31.20;25.50;;;;;;5097656;28;20180;-43
2021/04/02 12:06:30;;;;;;;9.90;9.23;;;31.40;25.60;;;;;;5077009;28;20563;-43
2021/04/02 12:08:56;;;;;;;8.20;7.50;;;31.90;25.50;;;;;;5077439;28;20430;-43
2021/04/02 12:11:22;;;;;;;7.90;7.30;;;32.10;25.50;;;;;;5097422;28;20192;-44
2021/04/02 12:13:48;;;;;;;8.10;7.50;;;32.00;25.40;;;;;;5093848;28;20511;-43
2021/04/02 12:16:13;;;;;;;9.07;8.47;;;31.30;25.30;;;;;;5096548;28;20469;-43
2021/04/02 12:18:39;;;;;;;7.70;7.10;;;30.10;25.50;;;;;;5097165;28;20172;-43
2021/04/02 12:21:05;;;;;;;6.70;6.20;;;30.30;25.80;;;;;;5076671;28;20271;-42
2021/04/02 12:23:31;;;;;;;8.40;7.70;;;30.50;25.80;;;;;;5094292;28;20752;-44
2021/04/02 12:25:56;;;;;;;9.03;7.50;;;30.60;25.50;;;;;;5076983;28;20440;-44
2021/04/02 12:28:22;;;;;;;7.30;6.60;;;30.90;25.40;;;;;;5095215;28;20180;-44
2021/04/02 12:30:48;;;;;;;6.50;6.00;;;30.90;25.60;;;;;;5095230;28;20191;-43
2021/04/02 12:33:14;;;;;;;7.37;6.80;;;31.80;25.30;;;;;;5060580;28;20415;-43
2021/04/02 12:35:40;;;;;;;9.63;8.73;;;32.40;25.20;;;;;;5077744;28;20724;-44
2021/04/02 12:38:09;;;;;;;7.40;6.90;;;32.70;24.50;;;;;;5093678;28;20184;-42
2021/04/02 12:40:37;;;;;;;6.13;5.73;;;32.40;24.90;;;;;;5096712;28;20188;-43
2021/04/02 12:43:03;;;;;;;6.90;6.40;;;31.70;25.20;;;;;;5096613;28;20404;-42
2021/04/02 12:45:33;;;;;;;7.43;6.90;;;31.90;24.90;;;;;;5096017;28;20462;-43